Time;durP1;ratioP1;P1;durP2;ratioP2;P2;SDS_P1;SDS_P2;PMS_P1;PMS_P2;Temp;Humidity;BMP_temperature;BMP_pressure;BME280_temperature;BME280_humidity;BME280_pressure;Samples;Min_cycle;Max_cycle;Signal;HPM_P1;HPM_P2
2022/03/20 00:00:31;;;;;;;37.03;20.32;;;;;;;3.02;80.40;104465.38;1755765;80;21540;-78
2022/03/20 00:03:06;;;;;;;36.83;18.77;;;;;;;2.98;80.43;104462.23;1772567;80;21102;-77
2022/03/20 00:05:38;;;;;;;35.68;20.90;;;;;;;2.98;80.66;104467.05;1775192;78;21076;-77
2022/03/20 00:08:12;;;;;;;41.85;23.32;;;;;;;2.99;80.60;104466.70;1769087;78;21069;-77
2022/03/20 00:10:45;;;;;;;34.45;20.62;;;;;;;2.96;80.48;104468.55;1759699;79;21805;-78
2022/03/20 00:13:10;;;;;;;39.18;20.32;;;;;;;2.97;80.77;104467.81;1766025;78;21129;-78
2022/03/20 00:15:40;;;;;;;39.53;20.02;;;;;;;3.03;80.84;104458.48;1754588;80;21698;-78
2022/03/20 00:18:10;;;;;;;35.80;20.85;;;;;;;3.05;80.70;104455.68;1771217;78;21801;-77
2022/03/20 00:20:47;;;;;;;38.33;18.48;;;;;;;3.10;80.91;104458.45;1778669;80;21071;-77
2022/03/20 00:23:16;;;;;;;51.28;22.73;;;;;;;3.17;80.93;104459.67;1763292;80;21873;-77
2022/03/20 00:25:44;;;;;;;41.88;23.25;;;;;;;3.20;80.92;104460.42;1735326;80;21045;-77
2022/03/20 00:28:12;;;;;;;37.53;22.15;;;;;;;3.26;80.97;104458.51;1773061;80;21156;-77
2022/03/20 00:30:39;;;;;;;48.30;23.60;;;;;;;3.28;80.81;104457.95;1754686;80;21157;-76
2022/03/20 00:33:05;;;;;;;39.53;22.48;;;;;;;3.26;80.64;104458.13;1749421;81;21066;-76
2022/03/20 00:35:32;;;;;;;45.03;24.55;;;;;;;3.26;80.59;104451.61;1780093;80;21758;-76
2022/03/20 00:37:58;;;;;;;39.67;22.27;;;;;;;3.27;80.53;104459.08;1780899;80;21034;-76
2022/03/20 00:40:27;;;;;;;35.35;21.40;;;;;;;3.26;80.42;104458.13;1762112;80;21083;-76
2022/03/20 00:42:55;;;;;;;38.70;22.55;;;;;;;3.22;80.22;104457.23;1752255;80;21103;-76
2022/03/20 00:45:22;;;;;;;37.35;22.67;;;;;;;3.23;80.39;104451.64;1754926;80;21079;-76
2022/03/20 00:47:49;;;;;;;40.17;22.00;;;;;;;3.25;80.31;104458.89;1776887;80;21837;-76
2022/03/20 00:50:15;;;;;;;40.55;24.05;;;;;;;3.25;80.26;104456.67;1781504;80;21086;-77
2022/03/20 00:52:45;;;;;;;49.03;25.97;;;;;;;3.24;80.21;104457.41;1766539;80;21571;-76
2022/03/20 00:55:12;;;;;;;44.48;25.05;;;;;;;3.25;80.27;104456.29;1753856;80;21111;-76
2022/03/20 00:57:38;;;;;;;42.67;25.12;;;;;;;3.26;80.30;104455.91;1754880;80;21067;-77
2022/03/20 01:00:07;;;;;;;52.27;26.57;;;;;;;3.25;80.26;104443.66;1756004;80;22554;-77
2022/03/20 01:02:43;;;;;;;47.38;24.85;;;;;;;3.28;80.31;104450.14;1777120;80;21065;-77
2022/03/20 01:05:09;;;;;;;45.55;25.15;;;;;;;3.30;80.32;104447.34;1761959;80;21095;-78
2022/03/20 01:07:39;;;;;;;46.73;25.05;;;;;;;3.35;80.37;104439.11;1769612;80;21104;-78
2022/03/20 01:10:09;;;;;;;46.55;24.23;;;;;;;3.32;79.96;104447.48;1757658;80;21075;-78
2022/03/20 01:12:39;;;;;;;42.08;24.80;;;;;;;3.31;80.15;104436.53;1763600;80;21829;-77
2022/03/20 01:15:10;;;;;;;41.08;24.75;;;;;;;3.39;80.18;104446.52;1754407;80;21596;-77
2022/03/20 01:17:38;;;;;;;43.13;25.82;;;;;;;3.41;80.07;104445.92;1760894;80;21587;-77
2022/03/20 01:20:08;;;;;;;45.03;26.90;;;;;;;3.44;80.07;104438.86;1766660;80;21510;-77
2022/03/20 01:22:36;;;;;;;38.83;24.27;;;;;;;3.46;80.03;104443.86;1774632;80;21569;-77
2022/03/20 01:25:08;;;;;;;42.45;26.33;;;;;;;3.43;79.67;104444.42;1763470;80;21779;-76
2022/03/20 01:27:40;;;;;;;42.23;25.72;;;;;;;3.42;79.91;104442.58;1759875;80;21586;-76
2022/03/20 01:30:09;;;;;;;39.30;25.72;;;;;;;3.42;79.87;104442.97;1705707;83;21085;-76
2022/03/20 01:32:36;;;;;;;39.33;24.80;;;;;;;3.41;79.82;104443.32;1736036;81;21031;-76
2022/03/20 01:35:06;;;;;;;43.55;25.52;;;;;;;3.32;79.59;104444.88;1737989;81;21168;-76
2022/03/20 01:37:31;;;;;;;39.60;25.68;;;;;;;3.26;79.55;104439.90;1727694;81;21977;-76
2022/03/20 01:40:04;;;;;;;45.12;26.55;;;;;;;3.24;79.79;104435.28;1787334;79;21087;-77
2022/03/20 01:42:32;;;;;;;39.40;25.55;;;;;;;3.26;79.68;104442.50;1783873;79;21109;-76
2022/03/20 01:44:57;;;;;;;47.15;26.70;;;;;;;3.26;79.61;104434.69;1797608;79;21189;-77
2022/03/20 01:47:24;;;;;;;41.00;25.27;;;;;;;3.26;79.55;104433.39;1775774;79;21083;-77
2022/03/20 01:49:50;;;;;;;45.35;29.15;;;;;;;3.25;79.47;104430.25;1790386;79;21767;-77
2022/03/20 01:52:24;;;;;;;42.55;26.65;;;;;;;3.17;79.18;104428.43;1775587;79;21054;-76
2022/03/20 01:54:47;;;;;;;46.95;27.90;;;;;;;3.09;79.22;104427.95;1774312;79;21059;-76
2022/03/20 01:57:19;;;;;;;43.23;26.75;;;;;;;3.06;79.36;104430.19;1779663;79;21087;-77
2022/03/20 01:59:52;;;;;;;44.65;27.27;;;;;;;3.03;79.26;104431.16;1774320;79;21651;-78
2022/03/20 02:02:18;;;;;;;41.25;27.65;;;;;;;3.01;79.46;104428.76;1765477;79;21889;-77
2022/03/20 02:04:51;;;;;;;44.93;28.10;;;;;;;3.03;79.58;104425.95;1773786;79;21073;-78
2022/03/20 02:07:15;;;;;;;40.92;26.97;;;;;;;3.07;79.59;104429.45;1765429;79;21089;-77
2022/03/20 02:09:44;;;;;;;45.55;27.05;;;;;;;3.12;79.63;104427.01;1792421;79;21173;-77
2022/03/20 02:12:14;;;;;;;45.73;29.05;;;;;;;3.16;79.62;104424.38;1785037;79;21047;-76
2022/03/20 02:14:40;;;;;;;47.98;28.73;;;;;;;3.20;79.55;104421.37;1768009;79;21670;-77
2022/03/20 02:17:07;;;;;;;44.38;29.52;;;;;;;3.21;79.44;104426.76;1774743;79;22170;-76
2022/03/20 02:19:36;;;;;;;48.00;28.27;;;;;;;3.24;79.41;104421.88;1762722;79;21008;-76
2022/03/20 02:22:03;;;;;;;46.88;29.32;;;;;;;3.26;79.32;104428.18;1746892;81;21069;-77
2022/03/20 02:24:40;;;;;;;50.10;31.45;;;;;;;3.27;79.28;104427.83;1774863;79;21627;-76
2022/03/20 02:27:16;;;;;;;51.23;32.90;;;;;;;3.27;79.18;104435.25;1770158;79;21736;-75
2022/03/20 02:29:54;;;;;;;46.02;28.47;;;;;;;3.20;79.09;104420.98;1777178;79;21050;-76
2022/03/20 02:32:20;;;;;;;;;;;;;;;3.21;79.03;104412.44;1727117;81;21077;-75
2022/03/20 02:34:49;;;;;;;53.02;30.82;;;;;;;3.14;78.81;104412.87;1765424;79;20329;-77
2022/03/20 02:37:19;;;;;;;45.52;29.85;;;;;;;3.04;78.88;104407.91;1763363;79;21157;-76
2022/03/20 02:39:53;;;;;;;45.67;30.30;;;;;;;3.03;79.01;104407.34;1684957;83;21925;-77
2022/03/20 02:42:23;;;;;;;51.35;30.65;;;;;;;3.05;78.96;104401.02;1730162;81;21122;-76
2022/03/20 02:45:00;;;;;;;48.30;32.45;;;;;;;3.01;78.90;104402.73;1757819;81;21075;-76
2022/03/20 02:47:29;;;;;;;49.45;32.78;;;;;;;3.00;78.96;104400.86;1758325;81;21060;-78
2022/03/20 02:50:04;;;;;;;50.12;29.87;;;;;;;2.97;79.03;104400.53;1758509;81;21134;-77
2022/03/20 02:52:54;;;;;;;56.13;33.13;;;;;;;2.99;79.13;104408.14;1734899;81;21627;-77
2022/03/20 02:55:24;;;;;;;51.63;32.53;;;;;;;2.97;79.15;104398.84;1754424;81;21059;-77
2022/03/20 02:57:53;;;;;;;48.02;31.65;;;;;;;3.09;79.28;104404.52;1712955;81;21022;-77
2022/03/20 03:00:22;;;;;;;56.15;34.27;;;;;;;3.12;79.09;104402.28;1701300;83;21121;-76
2022/03/20 03:02:50;;;;;;;51.53;33.10;;;;;;;3.14;79.11;104410.27;1752555;81;21727;-77
2022/03/20 03:05:18;;;;;;;52.62;34.13;;;;;;;3.15;78.97;104409.49;1701575;83;21285;-77
2022/03/20 03:13:18;;;;;;;57.00;35.50;;;;;;;3.24;79.02;104405.34;1732815;81;21532;-77
2022/03/20 03:15:44;;;;;;;51.90;33.85;;;;;;;3.25;78.84;104410.72;1701337;83;22349;-77
2022/03/20 03:18:11;;;;;;;54.25;35.28;;;;;;;3.24;78.75;104411.46;1701341;83;21818;-77
2022/03/20 03:20:38;;;;;;;53.05;34.92;;;;;;;3.22;78.58;104403.86;1700347;83;21219;-77
2022/03/20 03:23:05;;;;;;;55.63;36.73;;;;;;;3.24;78.68;104410.16;1757588;81;21081;-77
2022/03/20 03:25:32;;;;;;;59.18;37.10;;;;;;;3.25;78.75;104406.82;1758470;81;21064;-76
2022/03/20 03:27:59;;;;;;;61.88;38.13;;;;;;;3.29;78.69;104402.50;1705966;82;21543;-76
2022/03/20 03:30:26;;;;;;;61.35;37.25;;;;;;;3.31;78.67;104398.39;1702714;82;21772;-79
2022/03/20 03:32:56;;;;;;;61.50;37.85;;;;;;;3.31;78.55;104402.30;1731731;81;21560;-79
2022/03/20 03:38:14;;;;;;;58.55;38.00;;;;;;;3.23;78.26;104395.66;1754321;80;21660;-78
2022/03/20 03:40:45;;;;;;;63.45;38.63;;;;;;;3.22;78.34;104396.05;1750250;80;21708;-78
2022/03/20 03:43:14;;;;;;;59.50;38.73;;;;;;;3.23;78.42;104396.96;1772839;80;22521;-77
2022/03/20 03:45:43;;;;;;;65.75;39.15;;;;;;;3.19;78.17;104392.16;1758789;80;21078;-77
2022/03/20 03:48:10;;;;;;;68.15;41.90;;;;;;;3.13;77.98;104391.48;1740083;80;21057;-77
2022/03/20 03:50:42;;;;;;;67.45;40.25;;;;;;;3.00;77.92;104392.67;1752846;80;21560;-77
2022/03/20 03:53:10;;;;;;;63.28;37.10;;;;;;;3.01;78.27;104393.23;1769080;80;21564;-77
2022/03/20 03:55:40;;;;;;;64.75;40.63;;;;;;;2.98;78.16;104391.95;1763962;80;21822;-78
2022/03/20 03:58:06;;;;;;;64.47;41.25;;;;;;;2.94;78.04;104393.66;1768981;80;21092;-78
2022/03/20 04:00:34;;;;;;;64.00;39.10;;;;;;;2.88;78.01;104397.41;1761244;80;21066;-78
2022/03/20 04:03:01;;;;;;;61.60;39.05;;;;;;;2.83;78.07;104399.84;1773596;79;21197;-78
2022/03/20 04:05:30;;;;;;;65.00;38.55;;;;;;;2.81;78.09;104392.63;1769056;80;21066;-77
2022/03/20 04:07:57;;;;;;;69.30;40.43;;;;;;;2.81;78.17;104392.63;1772052;79;22564;-77
2022/03/20 04:10:24;;;;;;;69.72;41.90;;;;;;;2.82;78.28;104398.39;1775765;80;21129;-77
2022/03/20 04:12:51;;;;;;;68.55;41.42;;;;;;;2.83;78.24;104398.92;1785762;80;21027;-77
2022/03/20 04:15:24;;;;;;;61.58;39.15;;;;;;;2.85;78.35;104404.88;1759031;80;21536;-78
2022/03/20 04:17:46;;;;;;;64.87;39.85;;;;;;;2.86;78.14;104407.09;1740108;80;21054;-77
2022/03/20 04:20:13;;;;;;;72.50;40.65;;;;;;;2.83;78.09;104403.75;1771542;79;21753;-77
2022/03/20 04:23:42;;;;;;;74.85;41.80;;;;;;;2.77;77.91;104399.14;1764982;79;21015;-76
2022/03/20 04:25:11;;;;;;;70.28;41.00;;;;;;;2.75;78.06;104405.85;1757010;79;21119;-77
2022/03/20 04:27:38;;;;;;;68.95;40.55;;;;;;;2.77;78.11;104402.13;1756326;79;21683;-78
2022/03/20 04:30:07;;;;;;;66.55;37.58;;;;;;;2.81;78.22;104404.33;1773877;80;21617;-76
2022/03/20 04:32:34;;;;;;;63.73;39.27;;;;;;;2.84;78.20;104396.51;1761400;80;21690;-77
2022/03/20 04:35:00;;;;;;;75.62;40.28;;;;;;;2.85;78.00;104402.28;1773419;80;21098;-77
2022/03/20 04:37:27;;;;;;;69.10;41.42;;;;;;;2.83;77.97;104406.34;1776132;79;21059;-78
2022/03/20 04:39:53;;;;;;;74.50;42.90;;;;;;;2.83;78.00;104406.34;1773578;79;21114;-78
2022/03/20 04:42:20;;;;;;;68.70;40.23;;;;;;;2.81;77.97;104402.64;1770571;79;21077;-79
2022/03/20 04:44:47;;;;;;;71.92;41.55;;;;;;;2.80;77.84;104401.20;1775787;79;21805;-78
2022/03/20 04:58:29;;;;;;;87.30;46.70;;;;;;;2.75;77.86;104408.45;1771984;79;21810;-77
2022/03/20 05:00:56;;;;;;;77.65;43.45;;;;;;;2.70;77.82;104410.54;1775382;79;21520;-77
2022/03/20 05:03:24;;;;;;;77.15;41.60;;;;;;;2.68;77.93;104412.05;1777236;79;21611;-77
2022/03/20 05:05:50;;;;;;;74.85;41.80;;;;;;;2.61;77.67;104409.82;1790140;79;21046;-80
2022/03/20 05:08:17;;;;;;;83.70;44.03;;;;;;;2.52;77.66;104408.40;1773319;79;21077;-86
2022/03/20 05:13:30;;;;;;;79.58;41.25;;;;;;;2.46;77.90;104420.66;1774193;79;21082;-81
2022/03/20 05:15:57;;;;;;;71.80;41.60;;;;;;;2.48;78.01;104420.50;1776228;79;21101;-81
2022/03/20 05:18:23;;;;;;;73.55;42.08;;;;;;;2.47;78.06;104423.83;1788673;79;21083;-81
2022/03/20 05:20:52;;;;;;;80.38;44.60;;;;;;;2.51;78.10;104414.33;1786318;79;21042;-79
2022/03/20 05:23:20;;;;;;;83.15;45.33;;;;;;;2.56;78.09;104417.48;1789488;79;23814;-80
2022/03/20 05:25:49;;;;;;;73.02;43.87;;;;;;;2.58;78.06;104419.50;1796740;79;21077;-79
2022/03/20 05:28:16;;;;;;;82.45;47.13;;;;;;;2.67;78.16;104427.47;1752387;79;21077;-79
2022/03/20 05:30:43;;;;;;;81.67;42.53;;;;;;;2.70;77.96;104436.55;1789878;79;21602;-79
2022/03/20 05:33:10;;;;;;;72.50;42.40;;;;;;;2.68;77.75;104432.85;1787754;79;21701;-79
2022/03/20 05:35:39;;;;;;;68.12;39.30;;;;;;;2.64;77.75;104434.90;1773792;79;21784;-79
2022/03/20 05:38:09;;;;;;;72.27;39.85;;;;;;;2.65;77.78;104434.17;1789454;79;21066;-80
2022/03/20 05:40:38;;;;;;;73.97;41.58;;;;;;;2.68;77.88;104435.80;1767931;79;21076;-79
2022/03/20 05:43:11;;;;;;;70.95;40.70;;;;;;;2.71;77.65;104438.77;1771289;79;21066;-80
2022/03/20 05:45:40;;;;;;;72.87;41.35;;;;;;;2.68;77.57;104441.00;1769559;79;21062;-79
2022/03/20 05:48:11;;;;;;;78.65;41.85;;;;;;;2.72;77.65;104442.86;1791570;79;21953;-82
2022/03/20 05:50:41;;;;;;;72.30;41.00;;;;;;;2.70;77.39;104446.95;1742303;79;21045;-82
2022/03/20 05:53:06;;;;;;;75.08;42.15;;;;;;;2.68;77.39;104446.20;1789596;79;21044;-82
2022/03/20 05:58:20;;;;;;;67.82;39.50;;;;;;;2.80;77.61;104450.25;1770463;79;21054;-76
2022/03/20 06:00:49;;;;;;;103.95;57.62;;;;;;;2.81;77.36;104458.59;1776878;79;21362;-75
2022/03/20 06:03:17;;;;;;;83.87;48.55;;;;;;;2.84;77.33;104459.34;1785822;79;21247;-76
2022/03/20 06:05:47;;;;;;;80.22;45.03;;;;;;;2.85;77.24;104459.87;1787369;79;21097;-78
2022/03/20 06:08:21;;;;;;;112.72;65.15;;;;;;;2.85;77.08;104468.98;1767335;79;21583;-78
2022/03/20 06:10:47;;;;;;;81.90;45.63;;;;;;;2.79;76.97;104466.97;1785589;79;21113;-81
2022/03/20 06:13:14;;;;;;;83.25;48.75;;;;;;;2.88;77.37;104457.64;1789120;79;22609;-80
2022/03/20 06:15:41;;;;;;;79.17;43.90;;;;;;;3.01;77.38;104458.30;1774168;79;21569;-76
2022/03/20 06:18:09;;;;;;;82.45;46.02;;;;;;;3.14;77.44;104460.64;1777715;79;21111;-76
2022/03/20 06:20:37;;;;;;;81.10;47.27;;;;;;;3.23;77.16;104463.35;1777968;79;22384;-76
2022/03/20 06:23:05;;;;;;;94.17;51.92;;;;;;;3.25;77.02;104465.79;1772095;79;21656;-76
2022/03/20 06:25:32;;;;;;;81.45;47.30;;;;;;;3.28;76.84;104470.97;1770719;79;21757;-76
2022/03/20 06:28:00;;;;;;;74.80;45.55;;;;;;;3.26;76.68;104471.53;1784390;79;21373;-76
2022/03/20 06:30:27;;;;;;;74.12;43.42;;;;;;;3.26;76.58;104467.23;1778718;79;21078;-76
2022/03/20 06:32:55;;;;;;;79.75;44.98;;;;;;;3.34;76.60;104468.14;1766866;79;21073;-77
2022/03/20 06:35:22;;;;;;;84.72;48.05;;;;;;;3.38;76.45;104475.55;1777113;79;21088;-79
2022/03/20 06:37:53;;;;;;;75.52;44.77;;;;;;;3.49;76.59;104473.79;1769513;79;21719;-79
2022/03/20 06:40:20;;;;;;;77.40;45.28;;;;;;;3.64;76.59;104473.30;1773582;79;21097;-79
2022/03/20 06:42:47;;;;;;;74.22;45.43;;;;;;;3.81;76.46;104478.16;1772818;79;21079;-82
2022/03/20 06:45:14;;;;;;;80.03;47.17;;;;;;;4.00;76.37;104478.18;1732447;81;21081;-79
2022/03/20 06:47:42;;;;;;;78.25;44.98;;;;;;;4.21;76.25;104485.23;1733272;81;21057;-79
2022/03/20 06:50:10;;;;;;;76.07;46.10;;;;;;;4.40;76.06;104470.84;1783020;79;22629;-78
2022/03/20 06:52:40;;;;;;;71.22;44.95;;;;;;;4.58;75.89;104471.95;1772420;79;22320;-78
2022/03/20 06:55:12;;;;;;;73.25;43.85;;;;;;;4.82;75.91;104476.30;1773885;79;21079;-77
2022/03/20 06:57:42;;;;;;;74.42;47.00;;;;;;;5.06;75.56;104475.38;1775708;79;21046;-77
2022/03/20 07:00:11;;;;;;;77.12;44.80;;;;;;;5.29;75.35;104470.77;1763893;80;21124;-76
2022/03/20 07:02:38;;;;;;;77.05;46.83;;;;;;;5.52;75.12;104465.00;1768260;79;22532;-76
2022/03/20 07:05:05;;;;;;;73.12;45.30;;;;;;;5.67;74.60;104468.66;1771300;79;21050;-77
2022/03/20 07:07:34;;;;;;;76.33;47.88;;;;;;;5.76;74.13;104472.23;1779822;79;21074;-77
2022/03/20 07:10:06;;;;;;;68.12;42.75;;;;;;;5.75;73.64;104475.24;1775804;79;21229;-80
2022/03/20 07:12:33;;;;;;;74.27;45.55;;;;;;;5.74;73.40;104469.84;1766443;79;21823;-80
2022/03/20 07:14:59;;;;;;;81.10;47.58;;;;;;;5.77;73.15;104475.41;1766601;79;21772;-80
2022/03/20 07:17:27;;;;;;;74.80;47.10;;;;;;;5.77;72.85;104475.41;1764472;81;21332;-81
2022/03/20 07:19:53;;;;;;;76.00;47.08;;;;;;;5.77;72.71;104474.10;1695570;82;21105;-78
2022/03/20 07:22:23;;;;;;;69.53;44.48;;;;;;;5.72;72.44;104483.14;1735055;81;21685;-79
2022/03/20 07:24:50;;;;;;;73.33;44.90;;;;;;;5.71;72.43;104483.92;1741902;81;21301;-78
2022/03/20 07:30:06;;;;;;;72.03;51.68;;;;;;;5.70;72.13;104488.20;1758706;79;38968;-76
2022/03/20 07:32:34;;;;;;;76.80;50.33;;;;;;;5.75;72.50;104494.84;1781051;79;21284;-77
2022/03/20 07:35:01;;;;;;;77.50;50.38;;;;;;;5.75;71.80;104494.84;1789116;79;21206;-76
2022/03/20 07:37:29;;;;;;;81.90;51.10;;;;;;;5.64;71.60;104496.72;1783932;79;21180;-76
2022/03/20 07:39:56;;;;;;;85.32;50.38;;;;;;;5.52;71.46;104503.25;1722768;81;21973;-77
2022/03/20 07:42:26;;;;;;;83.75;51.02;;;;;;;5.39;71.48;104501.05;1732805;81;21074;-76
2022/03/20 07:44:54;;;;;;;81.78;50.60;;;;;;;5.39;71.80;104501.05;1711978;83;21076;-78
2022/03/20 07:47:21;;;;;;;90.15;51.02;;;;;;;5.39;71.65;104495.83;1717203;83;21153;-78
2022/03/20 07:49:49;;;;;;;82.97;51.63;;;;;;;5.33;71.58;104496.45;1689773;83;21178;-79
2022/03/20 07:52:18;;;;;;;83.42;50.15;;;;;;;5.22;71.34;104487.50;1720374;82;21053;-78
2022/03/20 07:54:47;;;;;;;80.50;49.73;;;;;;;5.08;71.36;104489.92;1736973;81;21020;-79
2022/03/20 07:57:14;;;;;;;82.30;50.90;;;;;;;4.97;71.33;104498.28;1741384;81;21080;-79
2022/03/20 07:59:42;;;;;;;79.22;49.98;;;;;;;4.86;71.39;104498.06;1747880;81;21067;-78
2022/03/20 08:02:09;;;;;;;86.17;51.15;;;;;;;4.79;71.41;104494.23;1751903;81;21071;-79
2022/03/20 08:04:35;;;;;;;88.05;51.08;;;;;;;4.71;71.28;104488.57;1751352;81;21752;-79
2022/03/20 08:07:02;;;;;;;87.62;50.80;;;;;;;4.60;71.19;104492.61;1738171;81;21129;-78
2022/03/20 08:09:29;;;;;;;83.60;51.80;;;;;;;4.54;71.44;104497.13;1729431;81;21658;-79
2022/03/20 08:11:56;;;;;;;97.20;53.90;;;;;;;4.54;71.58;104505.34;1742317;81;21196;-78
2022/03/20 08:14:23;;;;;;;100.92;57.10;;;;;;;4.50;71.61;104504.47;1747947;81;21094;-78
2022/03/20 08:16:51;;;;;;;90.45;52.48;;;;;;;4.45;71.68;104507.89;1716350;83;21800;-78
2022/03/20 08:19:21;;;;;;;90.28;51.15;;;;;;;4.40;71.65;104508.67;1718779;82;21104;-84
2022/03/20 08:22:25;;;;;;;81.15;48.73;;;;;;;4.34;71.71;104512.30;1743637;81;21070;-78
2022/03/20 08:24:52;;;;;;;74.55;46.15;;;;;;;4.36;71.78;104506.88;1737025;81;21079;-78
2022/03/20 08:27:21;;;;;;;74.30;44.83;;;;;;;4.27;71.58;104504.16;1741520;81;21085;-78
2022/03/20 08:32:40;;;;;;;79.12;46.15;;;;;;;4.24;71.69;104499.89;1758649;80;21131;-79
2022/03/20 08:35:13;;;;;;;73.17;44.38;;;;;;;4.22;71.69;104505.32;1757622;80;21110;-79
2022/03/20 08:37:37;;;;;;;71.33;44.15;;;;;;;4.26;71.87;104500.98;1729258;80;21578;-79
2022/03/20 08:40:05;;;;;;;68.75;42.67;;;;;;;4.29;71.66;104502.64;1741295;80;21083;-79
2022/03/20 08:42:33;;;;;;;65.92;41.15;;;;;;;4.29;71.65;104503.95;1708889;82;21897;-78
2022/03/20 08:45:01;;;;;;;69.45;40.17;;;;;;;4.33;71.62;104507.44;1763459;79;21631;-78
2022/03/20 08:47:36;;;;;;;58.92;37.08;;;;;;;4.39;71.45;104508.49;1742079;80;21135;-77
2022/03/20 08:50:02;;;;;;;64.25;37.45;;;;;;;4.43;71.23;104509.02;1748950;80;21188;-79
2022/03/20 08:52:29;;;;;;;55.95;36.48;;;;;;;4.45;71.17;104504.90;1751387;80;21114;-78
2022/03/20 08:55:09;;;;;;;59.23;37.15;;;;;;;4.50;70.96;104504.08;1743010;80;21750;-78
2022/03/20 08:57:33;;;;;;;52.93;33.60;;;;;;;4.58;70.82;104498.40;1733803;81;21089;-79
2022/03/20 09:00:03;;;;;;;56.13;34.70;;;;;;;4.66;70.56;104502.80;1758564;80;21579;-78
2022/03/20 09:02:30;;;;;;;55.70;34.67;;;;;;;4.67;70.19;104501.66;1740061;80;21250;-79
2022/03/20 09:04:57;;;;;;;62.70;40.65;;;;;;;4.64;70.06;104497.40;1736486;80;21181;-79
2022/03/20 09:07:24;;;;;;;57.27;35.38;;;;;;;4.68;70.22;104499.97;1756646;80;22671;-78
2022/03/20 09:09:54;;;;;;;54.70;34.33;;;;;;;4.75;70.33;104492.41;1731148;81;21078;-79
2022/03/20 09:12:29;;;;;;;49.15;32.60;;;;;;;4.83;70.38;104492.49;1741958;80;21076;-80
2022/03/20 09:14:56;;;;;;;50.85;33.05;;;;;;;4.91;70.11;104485.88;1709884;81;21107;-79
2022/03/20 09:20:10;;;;;;;56.77;33.88;;;;;;;4.91;69.90;104476.74;1729224;80;21801;-78
2022/03/20 09:22:37;;;;;;;57.38;35.30;;;;;;;4.96;70.03;104472.95;1719010;81;21616;-79
2022/03/20 09:25:04;;;;;;;74.92;48.87;;;;;;;5.03;70.17;104473.77;1750902;80;21067;-80
2022/03/20 09:27:33;;;;;;;53.08;33.95;;;;;;;5.13;70.05;104472.14;1754040;80;21087;-80
2022/03/20 09:30:01;;;;;;;48.52;33.08;;;;;;;5.19;69.84;104471.48;1742680;80;21044;-80
2022/03/20 09:32:27;;;;;;;47.73;29.05;;;;;;;5.26;69.59;104469.69;1774096;80;22356;-79
2022/03/20 09:34:54;;;;;;;47.08;29.55;;;;;;;5.30;69.08;104470.94;1763335;79;21558;-84
2022/03/20 09:37:21;;;;;;;45.40;29.90;;;;;;;5.35;68.77;104465.83;1744605;80;20999;-80
2022/03/20 09:39:47;;;;;;;48.83;32.05;;;;;;;5.40;68.54;104467.61;1764979;80;21078;-80
2022/03/20 09:42:14;;;;;;;49.00;32.05;;;;;;;5.34;68.49;104452.60;1751154;80;21067;-80
2022/03/20 09:44:41;;;;;;;49.90;32.60;;;;;;;5.43;68.33;104458.80;1764703;79;21743;-80
2022/03/20 09:47:17;;;;;;;44.65;28.45;;;;;;;5.49;68.18;104458.52;1737605;81;21074;-80
2022/03/20 09:49:46;;;;;;;44.25;27.30;;;;;;;5.56;68.09;104455.41;1764877;79;21047;-77
2022/03/20 09:52:14;;;;;;;42.98;27.48;;;;;;;5.69;68.08;104455.36;1758931;79;21882;-80
2022/03/20 09:54:41;;;;;;;41.95;29.15;;;;;;;5.81;67.94;104453.65;1729860;81;21129;-78
2022/03/20 09:57:11;;;;;;;46.83;30.05;;;;;;;5.94;67.84;104453.63;1764839;80;22593;-78
2022/03/20 09:59:40;;;;;;;43.02;29.45;;;;;;;6.05;67.78;104453.47;1738225;81;21098;-78
2022/03/20 10:02:10;;;;;;;45.17;29.95;;;;;;;6.15;67.82;104451.93;1779614;79;21554;-77
2022/03/20 10:04:57;;;;;;;47.27;30.32;;;;;;;6.25;67.53;104453.83;1759120;81;21098;-78
2022/03/20 10:07:30;;;;;;;39.18;26.97;;;;;;;6.30;67.29;104452.58;1748561;80;21426;-78
2022/03/20 10:10:23;;;;;;;36.90;26.03;;;;;;;6.39;66.81;104452.20;1772753;79;21969;-79
2022/03/20 10:12:58;;;;;;;42.48;26.60;;;;;;;6.51;66.52;104450.29;1776690;80;21254;-79
2022/03/20 10:15:40;;;;;;;37.05;25.50;;;;;;;6.59;66.14;104437.61;1745115;80;21016;-77
2022/03/20 10:18:23;;;;;;;34.53;24.50;;;;;;;6.63;66.00;104442.38;1761906;81;21518;-80
2022/03/20 10:20:53;;;;;;;33.48;25.90;;;;;;;6.70;65.72;104438.66;1763315;78;21547;-76
2022/03/20 10:23:38;;;;;;;34.70;22.07;;;;;;;6.76;65.58;104433.67;1763912;80;22621;-77
2022/03/20 10:26:08;;;;;;;29.50;21.00;;;;;;;6.83;65.06;104439.50;1775362;79;21046;-76
2022/03/20 10:28:42;;;;;;;33.85;24.00;;;;;;;6.88;64.53;104439.19;1765827;79;21044;-77
2022/03/20 10:31:23;;;;;;;32.23;22.95;;;;;;;6.73;64.46;104401.92;1777778;80;21070;-77
2022/03/20 10:34:10;;;;;;;32.15;22.67;;;;;;;6.99;64.30;104428.47;1752596;80;21070;-76
2022/03/20 10:36:35;;;;;;;27.05;19.90;;;;;;;7.07;63.92;104421.37;1764593;79;22801;-76
2022/03/20 10:39:02;;;;;;;29.15;20.90;;;;;;;7.13;63.56;104416.72;1768722;79;21091;-76
2022/03/20 10:41:34;;;;;;;31.45;20.55;;;;;;;7.19;63.12;104413.02;1769962;79;21017;-78
2022/03/20 10:44:02;;;;;;;27.90;19.35;;;;;;;7.29;62.86;104406.05;1769220;79;21071;-76
2022/03/20 10:46:34;;;;;;;25.88;18.98;;;;;;;7.36;62.61;104408.10;1757149;79;21028;-77
2022/03/20 10:49:06;;;;;;;26.10;18.45;;;;;;;7.47;62.34;104413.08;1768971;79;21000;-78
2022/03/20 10:51:43;;;;;;;39.03;28.17;;;;;;;7.54;61.85;104407.62;1744275;79;21075;-77
2022/03/20 10:54:20;;;;;;;22.17;16.50;;;;;;;7.62;61.51;104404.45;1770167;79;21087;-77
2022/03/20 10:56:59;;;;;;;20.72;15.70;;;;;;;7.68;60.59;104398.48;1770498;79;21701;-78
2022/03/20 10:59:27;;;;;;;24.65;16.35;;;;;;;7.68;59.93;104386.67;1773673;80;21107;-78
2022/03/20 11:01:54;;;;;;;20.12;16.20;;;;;;;7.70;59.55;104386.44;1737731;80;21763;-78
2022/03/20 11:04:21;;;;;;;20.97;15.65;;;;;;;7.80;59.51;104386.91;1771145;80;21029;-78
2022/03/20 11:06:49;;;;;;;21.52;14.78;;;;;;;7.86;59.36;104390.50;1769541;80;21119;-79
2022/03/20 11:09:15;;;;;;;21.62;14.05;;;;;;;7.94;59.32;104385.21;1770140;80;21052;-78
2022/03/20 11:11:49;;;;;;;22.95;14.87;;;;;;;8.07;59.15;104379.78;1778730;78;21126;-79
2022/03/20 11:14:18;;;;;;;;;;;;;;;8.14;58.50;104371.31;1774556;80;22595;-78
2022/03/20 11:16:51;;;;;;;17.02;12.37;;;;;;;8.19;57.53;104371.75;1764231;80;20188;-78
2022/03/20 11:19:26;;;;;;;17.98;11.22;;;;;;;8.28;57.47;104360.80;1759693;80;22296;-78
2022/03/20 11:22:00;;;;;;;19.55;13.05;;;;;;;8.40;56.88;104360.09;1757859;80;21000;-78
2022/03/20 11:24:27;;;;;;;18.75;13.75;;;;;;;8.48;56.64;104353.86;1770152;79;21055;-78
2022/03/20 11:26:58;;;;;;;21.97;14.83;;;;;;;8.51;56.54;104348.89;1768724;79;21728;-79
2022/03/20 11:29:26;;;;;;;21.95;13.22;;;;;;;8.53;56.29;104344.70;1771119;79;21072;-78
2022/03/20 11:31:59;;;;;;;18.35;13.93;;;;;;;8.55;55.93;104344.05;1769744;79;21017;-77
2022/03/20 11:34:26;;;;;;;18.75;13.60;;;;;;;8.62;55.54;104338.98;1781805;79;21068;-77
2022/03/20 11:37:08;;;;;;;25.12;13.43;;;;;;;8.70;55.14;104331.78;1775887;79;21020;-77
2022/03/20 11:39:39;;;;;;;19.55;14.03;;;;;;;8.75;54.87;104335.36;1752115;80;22263;-77
2022/03/20 11:42:26;;;;;;;24.55;14.83;;;;;;;8.78;54.12;104328.53;1756233;80;21064;-76
2022/03/20 11:45:07;;;;;;;19.27;12.30;;;;;;;8.74;53.84;104326.93;1756141;80;21075;-76
2022/03/20 11:47:36;;;;;;;18.05;13.22;;;;;;;8.77;53.46;104319.73;1770385;78;21127;-76
2022/03/20 11:50:24;;;;;;;21.87;14.83;;;;;;;8.80;53.19;104325.64;1768882;80;21557;-76
2022/03/20 11:53:00;;;;;;;18.95;13.62;;;;;;;8.83;53.13;104320.28;1770207;79;21759;-75
2022/03/20 11:55:42;;;;;;;23.25;14.13;;;;;;;8.90;52.66;104322.67;1766448;80;21537;-76
2022/03/20 11:58:24;;;;;;;19.15;12.88;;;;;;;8.90;52.25;104314.80;1771444;80;21087;-77
2022/03/20 12:01:05;;;;;;;21.75;16.17;;;;;;;8.91;51.99;104315.30;1771922;80;21708;-75